Terminal Aerodrome Forecast
Issued by NWS Charleston, WV

Current Version | Previous Version | Graphics & Text | Print | Product List | Glossary On
Versions: 1 2 3 4 5 6 7 8 9 10 11 12 13 14 15 16 17 18 19 20 21
000
FTUS41 KRLX 241100
TAFEKN
TAF
KEKN 241121Z 2412/2512 31005KT 5SM -SN OVC008
      TEMPO 2414/2416 2SM -SN BR OVC005
     FM241600 29007KT P6SM BKN015
     FM242100 26010G17KT P6SM SCT025
     FM250200 27012KT 5SM -SHSN OVC015=

USA.gov is the U.S. government's official web portal to all federal, state and local government web resources and services.